sensor_id;sensor_type;location;lat;lon;timestamp;pressure;altitude;pressure_sealevel;temperature;humidity
54503;BME280;40411;50.090;21.954;2023-07-08T00:00:20;6204.59;;;12.80;100.00
54503;BME280;40411;50.090;21.954;2023-07-08T00:03:09;6533.56;;;12.71;100.00
54503;BME280;40411;50.090;21.954;2023-07-08T00:05:35;6532.75;;;12.66;100.00
54503;BME280;40411;50.090;21.954;2023-07-08T00:08:02;6532.66;;;12.65;100.00
54503;BME280;40411;50.090;21.954;2023-07-08T00:10:29;6532.41;;;12.64;100.00
54503;BME280;40411;50.090;21.954;2023-07-08T00:12:56;6861.59;;;12.57;100.00
54503;BME280;40411;50.090;21.954;2023-07-08T00:15:31;7191.19;;;12.52;100.00
54503;BME280;40411;50.090;21.954;2023-07-08T00:17:59;7189.97;;;12.45;100.00
54503;BME280;40411;50.090;21.954;2023-07-08T00:20:39;7519.66;;;12.41;100.00
54503;BME280;40411;50.090;21.954;2023-07-08T00:23:08;7519.50;;;12.40;100.00
54503;BME280;40411;50.090;21.954;2023-07-08T00:25:34;7518.84;;;12.37;100.00
54503;BME280;40411;50.090;21.954;2023-07-08T00:28:00;7519.41;;;12.40;100.00
54503;BME280;40411;50.090;21.954;2023-07-08T00:30:31;7518.78;;;12.36;100.00
54503;BME280;40411;50.090;21.954;2023-07-08T00:32:58;7848.91;;;12.35;100.00
54503;BME280;40411;50.090;21.954;2023-07-08T00:35:41;7847.78;;;12.29;100.00
54503;BME280;40411;50.090;21.954;2023-07-08T00:38:28;8176.38;;;12.20;100.00
54503;BME280;40411;50.090;21.954;2023-07-08T00:41:08;8176.38;;;12.20;100.00
54503;BME280;40411;50.090;21.954;2023-07-08T00:46:17;8176.56;;;12.21;100.00
54503;BME280;40411;50.090;21.954;2023-07-08T00:48:45;8175.91;;;12.17;100.00
54503;BME280;40411;50.090;21.954;2023-07-08T00:51:11;8505.09;;;12.12;100.00
54503;BME280;40411;50.090;21.954;2023-07-08T00:53:38;8504.31;;;12.07;100.00
54503;BME280;40411;50.090;21.954;2023-07-08T00:56:18;8834.06;;;12.05;100.00
54503;BME280;40411;50.090;21.954;2023-07-08T00:58:52;8834.78;;;12.08;100.00
54503;BME280;40411;50.090;21.954;2023-07-08T01:01:20;8834.97;;;12.10;100.00
54503;BME280;40411;50.090;21.954;2023-07-08T01:03:52;9161.97;;;11.93;100.00
54503;BME280;40411;50.090;21.954;2023-07-08T01:06:21;9160.94;;;11.88;100.00
54503;BME280;40411;50.090;21.954;2023-07-08T01:08:49;9490.28;;;11.84;100.00
54503;BME280;40411;50.090;21.954;2023-07-08T01:11:20;9160.94;;;11.88;100.00
54503;BME280;40411;50.090;21.954;2023-07-08T01:13:48;9160.94;;;11.88;100.00
54503;BME280;40411;50.090;21.954;2023-07-08T01:16:16;8831.25;;;11.91;100.00
54503;BME280;40411;50.090;21.954;2023-07-08T01:18:43;8503.34;;;12.02;100.00
54503;BME280;40411;50.090;21.954;2023-07-08T01:21:34;8832.38;;;11.96;100.00
54503;BME280;40411;50.090;21.954;2023-07-08T01:24:03;8831.56;;;11.92;100.00
54503;BME280;40411;50.090;21.954;2023-07-08T01:26:33;8833.38;;;12.01;100.00
54503;BME280;40411;50.090;21.954;2023-07-08T01:29:01;8832.47;;;11.97;100.00
54503;BME280;40411;50.090;21.954;2023-07-08T01:31:28;9161.25;;;11.90;100.00
54503;BME280;40411;50.090;21.954;2023-07-08T01:33:54;9160.53;;;11.86;100.00
54503;BME280;40411;50.090;21.954;2023-07-08T01:36:23;8830.94;;;11.89;100.00
54503;BME280;40411;50.090;21.954;2023-07-08T01:38:49;8831.97;;;11.94;100.00
54503;BME280;40411;50.090;21.954;2023-07-08T01:41:16;9490.50;;;11.85;100.00
54503;BME280;40411;50.090;21.954;2023-07-08T01:43:43;9491.03;;;11.88;100.00
54503;BME280;40411;50.090;21.954;2023-07-08T01:46:17;9818.34;;;11.74;100.00
54503;BME280;40411;50.090;21.954;2023-07-08T01:48:49;9819.00;;;11.77;100.00
54503;BME280;40411;50.090;21.954;2023-07-08T01:51:16;9819.09;;;11.77;100.00
54503;BME280;40411;50.090;21.954;2023-07-08T01:53:43;10145.31;;;11.59;100.00
54503;BME280;40411;50.090;21.954;2023-07-08T01:56:11;10144.63;;;11.56;100.00
54503;BME280;40411;50.090;21.954;2023-07-08T01:58:38;10472.94;;;11.48;100.00
54503;BME280;40411;50.090;21.954;2023-07-08T02:01:05;10801.41;;;11.40;100.00
54503;BME280;40411;50.090;21.954;2023-07-08T02:03:31;10801.06;;;11.39;100.00
54503;BME280;40411;50.090;21.954;2023-07-08T02:05:57;11129.25;;;11.31;100.00
54503;BME280;40411;50.090;21.954;2023-07-08T02:08:23;11128.53;;;11.28;100.00
54503;BME280;40411;50.090;21.954;2023-07-08T02:10:52;11128.53;;;11.28;100.00
54503;BME280;40411;50.090;21.954;2023-07-08T02:13:19;11129.25;;;11.31;100.00
54503;BME280;40411;50.090;21.954;2023-07-08T02:15:47;11129.13;;;11.30;100.00
54503;BME280;40411;50.090;21.954;2023-07-08T02:18:13;11128.78;;;11.29;100.00
54503;BME280;40411;50.090;21.954;2023-07-08T02:20:45;11458.97;;;11.29;100.00
54503;BME280;40411;50.090;21.954;2023-07-08T02:23:11;11457.63;;;11.24;100.00
54503;BME280;40411;50.090;21.954;2023-07-08T02:25:37;11456.03;;;11.17;100.00
54503;BME280;40411;50.090;21.954;2023-07-08T02:28:03;11785.69;;;11.15;100.00
54503;BME280;40411;50.090;21.954;2023-07-08T02:30:29;11785.19;;;11.13;100.00
54503;BME280;40411;50.090;21.954;2023-07-08T02:32:55;11784.47;;;11.10;100.00
54503;BME280;40411;50.090;21.954;2023-07-08T02:35:25;11783.84;;;11.08;100.00
54503;BME280;40411;50.090;21.954;2023-07-08T02:37:53;12113.47;;;11.06;100.00
54503;BME280;40411;50.090;21.954;2023-07-08T02:40:20;11786.31;;;11.18;100.00
54503;BME280;40411;50.090;21.954;2023-07-08T02:42:46;12113.97;;;11.08;100.00
54503;BME280;40411;50.090;21.954;2023-07-08T02:45:12;11784.22;;;11.09;100.00
54503;BME280;40411;50.090;21.954;2023-07-08T02:47:38;11456.91;;;11.21;100.00
54503;BME280;40411;50.090;21.954;2023-07-08T02:50:04;11128.06;;;11.26;100.00
54503;BME280;40411;50.090;21.954;2023-07-08T02:52:31;10142.06;;;11.44;100.00
54503;BME280;40411;50.090;21.954;2023-07-08T02:54:56;9813.78;;;11.52;100.00
54503;BME280;40411;50.090;21.954;2023-07-08T02:57:22;9817.56;;;11.70;100.00
54503;BME280;40411;50.090;21.954;2023-07-08T02:59:48;9818.00;;;11.72;100.00
54503;BME280;40411;50.090;21.954;2023-07-08T03:02:14;10803.50;;;11.50;100.00
54503;BME280;40411;50.090;21.954;2023-07-08T03:04:40;10802.59;;;11.46;100.00
54503;BME280;40411;50.090;21.954;2023-07-08T03:07:08;10474.19;;;11.53;100.00
54503;BME280;40411;50.090;21.954;2023-07-08T03:09:38;10803.75;;;11.51;100.00
54503;BME280;40411;50.090;21.954;2023-07-08T03:12:10;10802.59;;;11.46;100.00
54503;BME280;40411;50.090;21.954;2023-07-08T03:14:36;10473.63;;;11.51;100.00
54503;BME280;40411;50.090;21.954;2023-07-08T03:17:04;10145.53;;;11.60;100.00
54503;BME280;40411;50.090;21.954;2023-07-08T03:19:30;9818.78;;;11.76;100.00
54503;BME280;40411;50.090;21.954;2023-07-08T03:21:56;9817.25;;;11.69;100.00
54503;BME280;40411;50.090;21.954;2023-07-08T03:24:23;9487.66;;;11.71;100.00
54503;BME280;40411;50.090;21.954;2023-07-08T03:26:49;8831.34;;;11.91;100.00
54503;BME280;40411;50.090;21.954;2023-07-08T03:29:21;8504.41;;;12.08;100.00
54503;BME280;40411;50.090;21.954;2023-07-08T03:31:47;8503.53;;;12.03;100.00
54503;BME280;40411;50.090;21.954;2023-07-08T03:34:15;8504.03;;;12.06;100.00
54503;BME280;40411;50.090;21.954;2023-07-08T03:36:46;8175.25;;;12.14;100.00
54503;BME280;40411;50.090;21.954;2023-07-08T03:39:21;7845.94;;;12.19;100.00
54503;BME280;40411;50.090;21.954;2023-07-08T03:41:48;7516.16;;;12.21;100.00
54503;BME280;40411;50.090;21.954;2023-07-08T03:44:14;6858.63;;;12.39;100.00
54503;BME280;40411;50.090;21.954;2023-07-08T03:46:45;5544.94;;;12.88;100.00
54503;BME280;40411;50.090;21.954;2023-07-08T03:49:13;4558.41;;;13.23;100.00
54503;BME280;40411;50.090;21.954;2023-07-08T03:51:40;3241.78;;;13.71;100.00
54503;BME280;40411;50.090;21.954;2023-07-08T03:54:10;1926.03;;;14.45;100.00
54503;BME280;40411;50.090;21.954;2023-07-08T03:56:37;1597.84;;;14.78;100.00
54503;BME280;40411;50.090;21.954;2023-07-08T03:59:03;1927.84;;;14.66;100.00
54503;BME280;40411;50.090;21.954;2023-07-08T04:01:30;1926.44;;;14.50;100.00
54503;BME280;40411;50.090;21.954;2023-07-08T04:03:57;1926.25;;;14.48;100.00
54503;BME280;40411;50.090;21.954;2023-07-08T04:06:24;1596.03;;;14.56;100.00
54503;BME280;40411;50.090;21.954;2023-07-08T04:08:51;1596.38;;;14.60;100.00
54503;BME280;40411;50.090;21.954;2023-07-08T04:11:19;1927.16;;;14.58;100.00
54503;BME280;40411;50.090;21.954;2023-07-08T04:13:46;1596.56;;;14.63;100.00
54503;BME280;40411;50.090;21.954;2023-07-08T04:19:13;1264.78;;;14.52;100.00
54503;BME280;40411;50.090;21.954;2023-07-08T04:21:42;934.88;;;14.65;100.00
54503;BME280;40411;50.090;21.954;2023-07-08T04:24:10;934.97;;;14.67;100.00
54503;BME280;40411;50.090;21.954;2023-07-08T04:26:37;274.16;;;14.83;100.00
54503;BME280;40411;50.090;21.954;2023-07-08T04:29:18;-55.91;;;14.98;100.00
54503;BME280;40411;50.090;21.954;2023-07-08T04:31:44;-386.09;;;15.14;100.00
54503;BME280;40411;50.090;21.954;2023-07-08T04:34:10;-1047.50;;;15.31;100.00
54503;BME280;40411;50.090;21.954;2023-07-08T04:36:36;-716.09;;;15.37;100.00
54503;BME280;40411;50.090;21.954;2023-07-08T04:39:04;-1047.13;;;15.40;100.00
54503;BME280;40411;50.090;21.954;2023-07-08T04:41:30;-1377.88;;;15.51;100.00
54503;BME280;40411;50.090;21.954;2023-07-08T04:43:57;-1708.44;;;15.70;100.00
54503;BME280;40411;50.090;21.954;2023-07-08T04:49:04;-2039.16;;;15.89;100.00
54503;BME280;40411;50.090;21.954;2023-07-08T04:51:31;-2370.06;;;16.08;100.00
54503;BME280;40411;50.090;21.954;2023-07-08T04:53:56;-2701.28;;;16.19;100.00
54503;BME280;40411;50.090;21.954;2023-07-08T04:56:25;-2369.75;;;16.22;100.00
54503;BME280;40411;50.090;21.954;2023-07-08T04:58:50;-2369.69;;;16.26;100.00
54503;BME280;40411;50.090;21.954;2023-07-08T05:01:16;-2701.00;;;16.35;100.00
54503;BME280;40411;50.090;21.954;2023-07-08T05:03:42;-3032.38;;;16.46;100.00
54503;BME280;40411;50.090;21.954;2023-07-08T05:06:08;-3032.34;;;16.48;100.00
54503;BME280;40411;50.090;21.954;2023-07-08T05:08:33;-3032.31;;;16.50;100.00
54503;BME280;40411;50.090;21.954;2023-07-08T05:10:59;-3695.34;;;16.81;100.00
54503;BME280;40411;50.090;21.954;2023-07-08T05:13:25;-4027.06;;;16.98;100.00
54503;BME280;40411;50.090;21.954;2023-07-08T05:15:51;-4358.88;;;17.09;100.00
54503;BME280;40411;50.090;21.954;2023-07-08T05:18:17;-4359.03;;;17.24;100.00
54503;BME280;40411;50.090;21.954;2023-07-08T05:20:50;-4691.09;;;17.42;100.00
54503;BME280;40411;50.090;21.954;2023-07-08T05:23:15;-4691.13;;;17.45;100.00
54503;BME280;40411;50.090;21.954;2023-07-08T05:25:43;-5355.63;;;17.75;100.00
54503;BME280;40411;50.090;21.954;2023-07-08T05:28:09;-5355.91;;;17.86;100.00
54503;BME280;40411;50.090;21.954;2023-07-08T05:30:35;-5355.97;;;17.88;100.00
54503;BME280;40411;50.090;21.954;2023-07-08T05:33:01;-5688.66;;;18.09;100.00
54503;BME280;40411;50.090;21.954;2023-07-08T05:35:27;-5688.63;;;18.09;100.00
54503;BME280;40411;50.090;21.954;2023-07-08T05:37:52;-6021.47;;;18.28;100.00
54503;BME280;40411;50.090;21.954;2023-07-08T05:40:18;-6687.19;;;18.58;100.00
54503;BME280;40411;50.090;21.954;2023-07-08T05:42:44;-7353.44;;;18.88;100.00
54503;BME280;40411;50.090;21.954;2023-07-08T05:45:10;-7021.34;;;18.95;100.00
54503;BME280;40411;50.090;21.954;2023-07-08T05:47:37;-7021.44;;;18.97;100.00
54503;BME280;40411;50.090;21.954;2023-07-08T05:50:03;-7354.97;;;19.16;100.00
54503;BME280;40411;50.090;21.954;2023-07-08T05:52:29;-7355.81;;;19.31;100.00
54503;BME280;40411;50.090;21.954;2023-07-08T05:54:55;-7023.09;;;19.30;100.00
54503;BME280;40411;50.090;21.954;2023-07-08T05:57:21;-7023.91;;;19.46;100.00
54503;BME280;40411;50.090;21.954;2023-07-08T05:59:49;-7689.78;;;19.53;100.00
54503;BME280;40411;50.090;21.954;2023-07-08T06:02:16;-7358.22;;;19.75;100.00
54503;BME280;40411;50.090;21.954;2023-07-08T06:04:43;-8026.63;;;20.16;100.00
54503;BME280;40411;50.090;21.954;2023-07-08T06:07:08;-8360.38;;;20.27;100.00
54503;BME280;40411;50.090;21.954;2023-07-08T06:09:34;-8361.25;;;20.39;100.00
54503;BME280;40411;50.090;21.954;2023-07-08T06:12:00;-8695.75;;;20.58;100.00
54503;BME280;40411;50.090;21.954;2023-07-08T06:14:27;-9031.47;;;20.89;100.00
54503;BME280;40411;50.090;21.954;2023-07-08T06:16:52;-9366.69;;;21.12;99.17
54503;BME280;40411;50.090;21.954;2023-07-08T06:19:20;-9703.25;;;21.47;96.88
54503;BME280;40411;50.090;21.954;2023-07-08T06:21:46;-10382.28;;;22.65;90.06
54503;BME280;40411;50.090;21.954;2023-07-08T06:24:12;-12071.88;;;24.19;85.46
54503;BME280;40411;50.090;21.954;2023-07-08T06:26:38;-12758.25;;;25.43;78.94
54503;BME280;40411;50.090;21.954;2023-07-08T06:29:04;-12098.91;;;26.35;70.05
54503;BME280;40411;50.090;21.954;2023-07-08T06:31:30;-12778.94;;;26.96;70.18
54503;BME280;40411;50.090;21.954;2023-07-08T06:33:57;-13459.72;;;27.55;68.74
54503;BME280;40411;50.090;21.954;2023-07-08T06:36:23;-13463.34;;;27.80;67.82
54503;BME280;40411;50.090;21.954;2023-07-08T06:38:49;-12112.72;;;27.46;64.24
54503;BME280;40411;50.090;21.954;2023-07-08T06:41:15;-12795.03;;;28.16;62.29
54503;BME280;40411;50.090;21.954;2023-07-08T06:43:41;-11445.03;;;27.92;58.70
54503;BME280;40411;50.090;21.954;2023-07-08T06:46:17;-12806.84;;;29.04;58.14
54503;BME280;40411;50.090;21.954;2023-07-08T06:48:44;-13493.78;;;29.91;55.28
54503;BME280;40411;50.090;21.954;2023-07-08T06:51:10;-12807.94;;;29.12;59.16
54503;BME280;40411;50.090;21.954;2023-07-08T06:53:36;-12807.53;;;29.09;58.48
54503;BME280;40411;50.090;21.954;2023-07-08T06:56:02;-12806.50;;;29.01;59.75
54503;BME280;40411;50.090;21.954;2023-07-08T06:58:28;-10774.78;;;28.25;56.53
54503;BME280;40411;50.090;21.954;2023-07-08T07:00:55;-11786.53;;;28.32;60.20
54503;BME280;40411;50.090;21.954;2023-07-08T07:03:21;-11466.56;;;29.82;48.94
54503;BME280;40411;50.090;21.954;2023-07-08T07:05:46;-9426.59;;;28.25;52.32
54503;BME280;40411;50.090;21.954;2023-07-08T07:08:12;-10787.72;;;29.51;49.01
54503;BME280;40411;50.090;21.954;2023-07-08T07:10:38;-8756.06;;;28.78;47.01
54503;BME280;40411;50.090;21.954;2023-07-08T07:13:04;-11132.03;;;30.13;46.46
54503;BME280;40411;50.090;21.954;2023-07-08T07:15:29;-12822.44;;;30.20;53.87
54503;BME280;40411;50.090;21.954;2023-07-08T07:17:56;-11807.81;;;30.12;49.71
54503;BME280;40411;50.090;21.954;2023-07-08T07:20:22;-11818.53;;;31.03;44.15
54503;BME280;40411;50.090;21.954;2023-07-08T07:22:48;-10793.91;;;30.11;46.81
54503;BME280;40411;50.090;21.954;2023-07-08T07:25:15;-11820.56;;;31.21;43.79
54503;BME280;40411;50.090;21.954;2023-07-08T07:27:41;-12497.94;;;31.25;46.22
54503;BME280;40411;50.090;21.954;2023-07-08T07:30:07;-11483.47;;;31.33;42.62
54503;BME280;40411;50.090;21.954;2023-07-08T07:32:33;-12495.59;;;31.06;47.73
54503;BME280;40411;50.090;21.954;2023-07-08T07:35:00;-9434.31;;;29.20;48.27
54503;BME280;40411;50.090;21.954;2023-07-08T07:37:26;-11135.16;;;30.42;46.45
54503;BME280;40411;50.090;21.954;2023-07-08T07:39:52;-14194.66;;;31.57;52.67
54503;BME280;40411;50.090;21.954;2023-07-08T07:42:19;-14211.53;;;32.67;45.75
54503;BME280;40411;50.090;21.954;2023-07-08T07:44:45;-14894.56;;;32.99;47.29
54503;BME280;40411;50.090;21.954;2023-07-08T07:47:12;-13871.81;;;32.63;45.12
54503;BME280;40411;50.090;21.954;2023-07-08T07:49:38;-12858.50;;;32.92;39.54
54503;BME280;40411;50.090;21.954;2023-07-08T07:52:05;-11830.16;;;32.02;40.23
54503;BME280;40411;50.090;21.954;2023-07-08T07:54:31;-12174.00;;;32.43;39.81
54503;BME280;40411;50.090;21.954;2023-07-08T07:56:57;-12515.53;;;32.63;40.48
54503;BME280;40411;50.090;21.954;2023-07-08T07:59:23;-10130.63;;;31.50;38.40
54503;BME280;40411;50.090;21.954;2023-07-08T08:01:50;-11827.09;;;31.76;42.85
54503;BME280;40411;50.090;21.954;2023-07-08T08:04:16;-10810.69;;;31.76;40.15
54503;BME280;40411;50.090;21.954;2023-07-08T08:06:42;-10805.81;;;31.28;42.81
54503;BME280;40411;50.090;21.954;2023-07-08T08:09:07;-12504.28;;;31.74;46.13
54503;BME280;40411;50.090;21.954;2023-07-08T08:11:34;-13530.16;;;32.44;46.94
54503;BME280;40411;50.090;21.954;2023-07-08T08:14:00;-14224.75;;;33.54;43.18
54503;BME280;40411;50.090;21.954;2023-07-08T08:16:26;-12869.91;;;33.78;36.61
54503;BME280;40411;50.090;21.954;2023-07-08T08:18:52;-14575.41;;;34.25;40.62
54503;BME280;40411;50.090;21.954;2023-07-08T08:21:18;-12529.16;;;33.70;35.86
54503;BME280;40411;50.090;21.954;2023-07-08T08:23:43;-9118.09;;;32.01;35.55
54503;BME280;40411;50.090;21.954;2023-07-08T08:26:09;-11156.31;;;32.40;39.25
54503;BME280;40411;50.090;21.954;2023-07-08T08:28:35;-10482.53;;;32.87;35.05
54503;BME280;40411;50.090;21.954;2023-07-08T08:31:01;-12178.75;;;32.82;40.64
54503;BME280;40411;50.090;21.954;2023-07-08T08:33:27;-12506.69;;;31.93;47.38
54503;BME280;40411;50.090;21.954;2023-07-08T08:35:53;-10137.06;;;32.21;37.23
54503;BME280;40411;50.090;21.954;2023-07-08T08:38:19;-12177.88;;;32.75;40.78
54503;BME280;40411;50.090;21.954;2023-07-08T08:40:45;-10827.34;;;33.41;33.55
54503;BME280;40411;50.090;21.954;2023-07-08T08:43:21;-11509.31;;;33.65;35.09
54503;BME280;40411;50.090;21.954;2023-07-08T08:51:20;-9114.16;;;31.49;39.22
54503;BME280;40411;50.090;21.954;2023-07-08T08:53:46;-12522.94;;;33.21;41.45
54503;BME280;40411;50.090;21.954;2023-07-08T09:01:27;-13913.25;;;35.44;34.77
54503;BME280;40411;50.090;21.954;2023-07-08T09:03:57;-9467.00;;;33.24;32.28
54503;BME280;40411;50.090;21.954;2023-07-08T09:06:30;-11853.03;;;33.99;35.22
54503;BME280;40411;50.090;21.954;2023-07-08T09:09:03;-11509.38;;;33.65;35.85
54503;BME280;40411;50.090;21.954;2023-07-08T09:13:57;-12543.69;;;34.85;33.81
54503;BME280;40411;50.090;21.954;2023-07-08T09:16:46;-10495.97;;;34.28;31.45
54503;BME280;40411;50.090;21.954;2023-07-08T09:19:25;-10150.47;;;33.69;32.74
54503;BME280;40411;50.090;21.954;2023-07-08T09:24:36;-10488.12;;;33.46;34.91
54503;BME280;40411;50.090;21.954;2023-07-08T09:27:05;-10493.44;;;34.01;33.05
54503;BME280;40411;50.090;21.954;2023-07-08T09:29:32;-8788.72;;;33.42;31.97
54503;BME280;40411;50.090;21.954;2023-07-08T09:31:59;-7422.28;;;32.04;34.39
54503;BME280;40411;50.090;21.954;2023-07-08T09:34:40;-9128.38;;;33.38;32.96
54503;BME280;40411;50.090;21.954;2023-07-08T09:37:24;-7083.38;;;32.13;33.16
54503;BME280;40411;50.090;21.954;2023-07-08T09:39:52;-6401.59;;;31.24;35.96
54503;BME280;40411;50.090;21.954;2023-07-08T09:42:19;-7763.16;;;32.34;34.45
54503;BME280;40411;50.090;21.954;2023-07-08T09:44:46;-8105.59;;;32.85;32.93
54503;BME280;40411;50.090;21.954;2023-07-08T09:47:35;-8786.53;;;33.10;33.05
54503;BME280;40411;50.090;21.954;2023-07-08T09:50:04;-10485.44;;;33.18;37.65
54503;BME280;40411;50.090;21.954;2023-07-08T09:52:38;-9459.16;;;32.26;39.89
54503;BME280;40411;50.090;21.954;2023-07-08T09:55:07;-9468.91;;;33.48;33.60
54503;BME280;40411;50.090;21.954;2023-07-08T09:57:36;-9470.06;;;33.62;33.00
54503;BME280;40411;50.090;21.954;2023-07-08T10:00:27;-9467.69;;;33.32;34.18
54503;BME280;40411;50.090;21.954;2023-07-08T10:02:58;-9806.31;;;33.19;35.87
54503;BME280;40411;50.090;21.954;2023-07-08T10:05:42;-9124.31;;;32.84;35.75
54503;BME280;40411;50.090;21.954;2023-07-08T10:08:15;-10489.38;;;33.59;35.68
54503;BME280;40411;50.090;21.954;2023-07-08T10:10:41;-9124.31;;;32.84;35.86
54503;BME280;40411;50.090;21.954;2023-07-08T10:13:18;-9467.44;;;33.29;34.59
54503;BME280;40411;50.090;21.954;2023-07-08T10:15:54;-9809.69;;;33.59;34.94
54503;BME280;40411;50.090;21.954;2023-07-08T10:18:29;-9125.63;;;33.02;35.27
54503;BME280;40411;50.090;21.954;2023-07-08T10:26:32;-9808.44;;;33.44;35.53
54503;BME280;40411;50.090;21.954;2023-07-08T10:29:35;-9465.94;;;33.10;36.80
54503;BME280;40411;50.090;21.954;2023-07-08T10:32:21;-10822.19;;;32.89;42.57
54503;BME280;40411;50.090;21.954;2023-07-08T10:35:15;-8105.53;;;32.84;33.81
54503;BME280;40411;50.090;21.954;2023-07-08T10:41:25;-3689.75;;;30.34;36.21
54503;BME280;40411;50.090;21.954;2023-07-08T10:46:50;-5384.22;;;31.02;36.28
54503;BME280;40411;50.090;21.954;2023-07-08T10:57:02;-7418.09;;;31.20;40.20
54503;BME280;40411;50.090;21.954;2023-07-08T11:07:56;-8437.38;;;31.64;41.54
54503;BME280;40411;50.090;21.954;2023-07-08T11:10:28;-3690.16;;;29.77;38.98
54503;BME280;40411;50.090;21.954;2023-07-08T11:13:19;-5044.00;;;30.05;39.81
54503;BME280;40411;50.090;21.954;2023-07-08T11:21:12;-6738.44;;;30.70;41.72
54503;BME280;40411;50.090;21.954;2023-07-08T11:26:31;-7421.84;;;31.95;37.92
54503;BME280;40411;50.090;21.954;2023-07-08T11:29:00;-6739.22;;;30.90;41.28
54503;BME280;40411;50.090;21.954;2023-07-08T11:31:30;-4705.31;;;29.80;42.27
54503;BME280;40411;50.090;21.954;2023-07-08T11:33:59;-7418.06;;;31.19;40.83
54503;BME280;40411;50.090;21.954;2023-07-08T11:36:26;-3689.94;;;30.11;37.26
54503;BME280;40411;50.090;21.954;2023-07-08T11:38:56;-5383.63;;;30.69;38.33
54503;BME280;40411;50.090;21.954;2023-07-08T11:41:24;-7420.06;;;31.59;39.33
54503;BME280;40411;50.090;21.954;2023-07-08T11:43:53;-5045.13;;;30.89;36.50
54503;BME280;40411;50.090;21.954;2023-07-08T11:46:24;-5383.63;;;30.69;38.38
54503;BME280;40411;50.090;21.954;2023-07-08T11:48:56;-6740.06;;;31.11;39.75
54503;BME280;40411;50.090;21.954;2023-07-08T11:51:32;-4367.28;;;30.87;35.42
54503;BME280;40411;50.090;21.954;2023-07-08T11:54:01;-6401.28;;;31.14;39.29
54503;BME280;40411;50.090;21.954;2023-07-08T11:59:20;-5723.91;;;31.35;36.98
54503;BME280;40411;50.090;21.954;2023-07-08T12:07:14;-5383.72;;;30.75;39.17
54503;BME280;40411;50.090;21.954;2023-07-08T12:09:48;-4028.38;;;30.71;35.50
54503;BME280;40411;50.090;21.954;2023-07-08T12:12:20;-2335.03;;;30.20;35.33
54503;BME280;40411;50.090;21.954;2023-07-08T12:14:47;-6062.69;;;31.26;37.72
54503;BME280;40411;50.090;21.954;2023-07-08T12:17:14;-1656.69;;;30.40;32.83
54503;BME280;40411;50.090;21.954;2023-07-08T12:19:42;-4706.63;;;31.41;33.95
54503;BME280;40411;50.090;21.954;2023-07-08T12:22:10;-4028.28;;;31.03;34.50
54503;BME280;40411;50.090;21.954;2023-07-08T12:24:38;-1994.44;;;30.75;31.97
54503;BME280;40411;50.090;21.954;2023-07-08T12:27:05;-3689.41;;;30.82;35.40
54503;BME280;40411;50.090;21.954;2023-07-08T12:29:31;-3011.97;;;30.50;35.68
54503;BME280;40411;50.090;21.954;2023-07-08T12:31:58;-4028.38;;;30.66;37.37
54503;BME280;40411;50.090;21.954;2023-07-08T12:34:25;-6064.66;;;31.95;35.16
54503;BME280;40411;50.090;21.954;2023-07-08T12:36:51;-5384.66;;;31.26;37.25
54503;BME280;40411;50.090;21.954;2023-07-08T12:39:17;-5725.22;;;31.91;34.71
54503;BME280;40411;50.090;21.954;2023-07-08T12:41:45;-5384.91;;;31.39;36.53
54503;BME280;40411;50.090;21.954;2023-07-08T12:44:20;-6063.97;;;31.70;37.46
54503;BME280;40411;50.090;21.954;2023-07-08T12:46:48;-3349.44;;;31.57;31.44
54503;BME280;40411;50.090;21.954;2023-07-08T12:49:15;-3688.72;;;31.67;32.20
54503;BME280;40411;50.090;21.954;2023-07-08T12:51:45;-4028.22;;;31.29;34.29
54503;BME280;40411;50.090;21.954;2023-07-08T12:54:13;-5723.25;;;31.06;39.99
54503;BME280;40411;50.090;21.954;2023-07-08T12:56:43;-5045.47;;;31.16;36.84
54503;BME280;40411;50.090;21.954;2023-07-08T12:59:16;-4706.53;;;31.31;35.58
54503;BME280;40411;50.090;21.954;2023-07-08T13:01:45;-4028.28;;;31.03;35.39
54503;BME280;40411;50.090;21.954;2023-07-08T13:04:12;-6063.69;;;31.60;37.26
54503;BME280;40411;50.090;21.954;2023-07-08T13:06:40;-4028.09;;;31.77;32.27
54503;BME280;40411;50.090;21.954;2023-07-08T13:09:32;-5725.16;;;31.88;36.30
54503;BME280;40411;50.090;21.954;2023-07-08T13:12:17;-5385.88;;;31.93;34.94
54503;BME280;40411;50.090;21.954;2023-07-08T13:14:48;-5046.91;;;32.28;32.38
54503;BME280;40411;50.090;21.954;2023-07-08T13:17:15;-6405.31;;;32.34;35.20
54503;BME280;40411;50.090;21.954;2023-07-08T13:19:42;-6743.09;;;31.90;38.82
54503;BME280;40411;50.090;21.954;2023-07-08T13:22:19;-7082.34;;;31.89;39.21
54503;BME280;40411;50.090;21.954;2023-07-08T13:24:47;-6402.69;;;31.56;38.80
54503;BME280;40411;50.090;21.954;2023-07-08T13:27:23;-4706.66;;;31.45;35.86
54503;BME280;40411;50.090;21.954;2023-07-08T13:29:53;-3689.41;;;30.80;36.81
54503;BME280;40411;50.090;21.954;2023-07-08T13:32:19;-1998.66;;;29.48;40.11
54503;BME280;40411;50.090;21.954;2023-07-08T13:34:48;1373.66;;;27.91;41.27
54503;BME280;40411;50.090;21.954;2023-07-08T13:37:14;-987.94;;;28.52;42.88
54503;BME280;40411;50.090;21.954;2023-07-08T13:39:44;-3690.16;;;29.78;41.87
54503;BME280;40411;50.090;21.954;2023-07-08T13:42:10;-3689.53;;;30.62;37.93
54503;BME280;40411;50.090;21.954;2023-07-08T13:44:44;-6739.97;;;31.09;42.93
54503;BME280;40411;50.090;21.954;2023-07-08T13:47:40;-4367.47;;;31.57;34.92
54503;BME280;40411;50.090;21.954;2023-07-08T13:50:22;-6064.00;;;31.72;37.73
54503;BME280;40411;50.090;21.954;2023-07-08T13:52:54;-5045.91;;;31.49;36.80
54503;BME280;40411;50.090;21.954;2023-07-08T13:55:21;-3350.34;;;30.88;35.87
54503;BME280;40411;50.090;21.954;2023-07-08T13:57:59;-5385.19;;;31.55;37.79
54503;BME280;40411;50.090;21.954;2023-07-08T14:00:29;370.47;;;29.40;35.68
54503;BME280;40411;50.090;21.954;2023-07-08T14:02:55;-2335.25;;;30.12;37.88